Estación Meteorológica Peña el Pijo (Robertgarden) [ 12/11/18 09:28:15 CET ]

Fecha Hora Presion(HPa) Temp (°C) Humedad % Rocio (°C) Viento ( m/s) Direccion Lluvia 1Hora(mm) Lluvia 24H(mm) LLuvia Total(mm)
2018-Dec-03 01:01:51 1013.500 9.6 68 4.0         154.88
2018-Dec-03 02:02:05 1013.000 8.8 69 3.4         154.88
2018-Dec-03 03:10:07 1013.000 7.7 70 2.6         154.88
2018-Dec-03 04:04:27 1012.900 8.7 70 3.5         154.88
2018-Dec-03 05:01:43 1012.800 7.9 71 3.0         154.88
2018-Dec-03 06:01:50 1012.700 8.4 70 3.3         154.88
2018-Dec-03 07:01:53 1013.100 7.6 70 2.5         154.88
2018-Dec-03 08:01:44 1013.200 6.3 74 2.0         154.88
2018-Dec-03 09:01:46 1013.300 5.9 75 1.8         154.88
2018-Dec-03 10:01:47 1013.300 11.9 70 6.6         154.88
2018-Dec-03 11:01:47 1013.400 17.1 54 7.7         154.88
2018-Dec-03 12:01:44 1013.100 21.2 41 7.4         154.88
2018-Dec-03 13:01:30 1012.300 22.6 34 5.8 1.8 NW     154.88
2018-Dec-03 14:01:30 1011.700 24.0 30 5.7         154.88
2018-Dec-03 15:01:35 1011.800 24.4 29 5.2         154.88
2018-Dec-03 16:01:29 1012.100 22.6 30 4.3 0.3 NW     154.88
2018-Dec-03 17:01:28 1012.900 19.1 36 3.2         154.88
2018-Dec-03 18:01:37 1013.300 14.6 45 2.7         154.88
2018-Dec-03 19:01:46 1013.800 10.6 56 2.1         154.88
2018-Dec-03 20:01:46 1014.200 10.3 61 3.1         154.88
2018-Dec-03 21:01:42 1014.700 9.3 62 2.4         154.88
2018-Dec-03 22:02:04 1014.700 6.9 67 1.2         154.88
2018-Dec-03 23:01:47 1014.800 5.9 71 1.1         154.88

Temperatura Máxima:24°    Temperatura Mínima:
Presión Máxima:1014.800 Hpa    Presión Mínima:1011.700 Hpa


Volver